createdAt,value
2023-04-16T00:00:36.317Z,100088.69
2023-04-16T00:03:39.816Z,100085.16
2023-04-16T00:06:43.412Z,100092.88
2023-04-16T00:09:46.850Z,100087.47
2023-04-16T00:12:49.860Z,100077.38
2023-04-16T00:15:53.284Z,100085.47
2023-04-16T00:18:56.376Z,100087.38
2023-04-16T00:21:59.235Z,100094.69
2023-04-16T00:25:02.234Z,100096.59
2023-04-16T00:28:06.219Z,100099.09
2023-04-16T00:31:09.200Z,100103.38
2023-04-16T00:34:12.428Z,100108.31
2023-04-16T00:37:15.807Z,100102.16
2023-04-16T00:40:18.602Z,100097.19
2023-04-16T00:43:26.221Z,100098.31
2023-04-16T00:46:29.555Z,100094.84
2023-04-16T00:49:32.960Z,100093.72
2023-04-16T00:52:36.133Z,100092.94
2023-04-16T00:55:40.086Z,100087.56
2023-04-16T00:58:43.478Z,100102.19
2023-04-16T01:01:46.530Z,100099.88
2023-04-16T01:04:51.862Z,100095.28
2023-04-16T01:08:00.087Z,100090.66
2023-04-16T01:11:03.767Z,100092.94
2023-04-16T01:14:07.220Z,100088.28
2023-04-16T01:17:10.327Z,100101.31
2023-04-16T01:20:13.510Z,100106.72
2023-04-16T01:23:18.720Z,100103.63
2023-04-16T01:26:24.258Z,100108.22
2023-04-16T01:29:27.584Z,100096.63
2023-04-16T01:32:33.650Z,100102.09
2023-04-16T01:35:36.802Z,100105.19
2023-04-16T01:38:40.174Z,100107.81
2023-04-16T01:41:43.809Z,100107.50
2023-04-16T01:44:47.733Z,100114.09
2023-04-16T01:47:51.427Z,100110.59
2023-04-16T01:50:55.982Z,100112.13
2023-04-16T01:53:59.756Z,100120.94
2023-04-16T01:57:03.276Z,100117.44
2023-04-16T02:00:08.558Z,100120.13
2023-04-16T02:03:25.040Z,100125.50
2023-04-16T02:06:29.146Z,100125.50
2023-04-16T02:09:35.723Z,100125.50
2023-04-16T02:12:41.889Z,100121.25
2023-04-16T02:15:47.211Z,100122.78
2023-04-16T02:18:51.614Z,100129.75
2023-04-16T02:21:57.545Z,100131.72
2023-04-16T02:25:00.983Z,100134.47
2023-04-16T02:28:04.927Z,100129.78
2023-04-16T02:31:13.864Z,100124.44
2023-04-16T02:34:20.641Z,100130.50
2023-04-16T02:37:26.078Z,100126.75
2023-04-16T02:40:29.681Z,100128.25
2023-04-16T02:43:32.993Z,100119.03
2023-04-16T02:46:36.017Z,100116.00
2023-04-16T02:49:39.283Z,100113.28
2023-04-16T02:52:42.600Z,100117.13
2023-04-16T02:55:53.014Z,100118.31
2023-04-16T02:58:56.525Z,100121.31
2023-04-16T03:01:59.879Z,100125.19
2023-04-16T03:05:04.031Z,100122.84
2023-04-16T03:08:07.899Z,100131.72
2023-04-16T03:11:10.931Z,100130.56
2023-04-16T03:14:14.434Z,100128.19
2023-04-16T03:17:17.859Z,100137.47
2023-04-16T03:20:20.977Z,100135.88
2023-04-16T03:23:24.115Z,100145.53
2023-04-16T03:26:27.608Z,100148.22
2023-04-16T03:29:31.764Z,100147.09
2023-04-16T03:32:35.162Z,100155.22
2023-04-16T03:35:40.276Z,100157.50
2023-04-16T03:38:44.482Z,100165.22
2023-04-16T03:41:47.734Z,100158.66
2023-04-16T03:44:51.533Z,100162.13
2023-04-16T03:47:54.888Z,100168.69
2023-04-16T03:51:01.358Z,100164.03
2023-04-16T03:54:05.774Z,100168.66
2023-04-16T03:57:09.522Z,100170.19
2023-04-16T04:00:14.409Z,100169.06
2023-04-16T04:03:18.128Z,100174.00
2023-04-16T04:06:23.988Z,100175.13
2023-04-16T04:09:27.196Z,100180.94
2023-04-16T04:12:32.313Z,100182.41
2023-04-16T04:15:35.816Z,100191.75
2023-04-16T04:18:39.132Z,100197.53
2023-04-16T04:21:43.064Z,100211.81
2023-04-16T04:24:46.336Z,100206.84
2023-04-16T04:27:50.242Z,100214.59
2023-04-16T04:30:53.589Z,100216.50
2023-04-16T04:33:57.010Z,100225.41
2023-04-16T04:37:00.829Z,100219.69
2023-04-16T04:40:05.905Z,100216.91
2023-04-16T04:43:11.103Z,100213.47
2023-04-16T04:46:14.695Z,100220.78
2023-04-16T04:49:18.049Z,100214.97
2023-04-16T04:52:21.133Z,100223.03
2023-04-16T04:55:25.609Z,100226.53
2023-04-16T04:58:29.529Z,100235.00
2023-04-16T05:01:33.402Z,100245.44
2023-04-16T05:04:36.543Z,100243.44
2023-04-16T05:07:39.536Z,100244.59
2023-04-16T05:10:46.358Z,100246.50
2023-04-16T05:13:52.144Z,100248.47
2023-04-16T05:16:55.650Z,100253.88
2023-04-16T05:19:58.755Z,100246.09
2023-04-16T05:23:01.873Z,100238.28
2023-04-16T05:26:05.355Z,100237.78
2023-04-16T05:29:09.068Z,100246.94
2023-04-16T05:32:12.735Z,100244.50
2023-04-16T05:35:17.544Z,100249.09
2023-04-16T05:38:20.849Z,100256.69
2023-04-16T05:41:23.987Z,100246.94
2023-04-16T05:44:27.440Z,100257.38
2023-04-16T05:47:30.602Z,100252.94
2023-04-16T05:50:33.871Z,100247.22
2023-04-16T05:53:37.237Z,100253.84
2023-04-16T05:56:40.420Z,100254.66
2023-04-16T05:59:43.502Z,100253.81
2023-04-16T06:02:46.719Z,100256.34
2023-04-16T06:05:50.096Z,100255.31
2023-04-16T06:08:53.580Z,100261.78
2023-04-16T06:11:58.194Z,100259.19
2023-04-16T06:15:01.496Z,100256.59
2023-04-16T06:18:06.599Z,100248.06
2023-04-16T06:21:10.941Z,100261.22
2023-04-16T06:24:14.188Z,100271.16
2023-04-16T06:27:17.342Z,100259.91
2023-04-16T06:30:21.086Z,100266.13
2023-04-16T06:33:24.680Z,100256.38
2023-04-16T06:36:29.087Z,100266.50
2023-04-16T06:39:32.167Z,100262.28
2023-04-16T06:42:35.191Z,100258.34
2023-04-16T06:45:38.694Z,100265.97
2023-04-16T06:48:42.675Z,100260.91
2023-04-16T06:51:45.938Z,100260.69
2023-04-16T06:54:49.167Z,100266.34
2023-04-16T06:57:52.389Z,100263.63
2023-04-16T07:00:55.963Z,100260.91
2023-04-16T07:03:59.452Z,100258.91
2023-04-16T07:07:03.035Z,100261.63
2023-04-16T07:10:06.662Z,100261.56
2023-04-16T07:13:10.194Z,100262.44
2023-04-16T07:16:13.584Z,100257.84
2023-04-16T07:19:16.846Z,100276.47
2023-04-16T07:22:20.807Z,100263.44
2023-04-16T07:25:23.654Z,100270.84
2023-04-16T07:28:27.136Z,100272.59
2023-04-16T07:31:31.231Z,100277.19
2023-04-16T07:34:34.497Z,100273.91
2023-04-16T07:37:37.973Z,100280.63
2023-04-16T07:40:41.645Z,100276.00
2023-04-16T07:43:44.836Z,100277.13
2023-04-16T07:46:48.024Z,100273.56
2023-04-16T07:49:51.034Z,100266.31
2023-04-16T07:52:54.190Z,100268.53
2023-04-16T07:55:57.397Z,100272.97
2023-04-16T07:59:07.914Z,100267.94
2023-04-16T08:02:22.512Z,100264.22
2023-04-16T08:05:25.637Z,100271.50
2023-04-16T08:08:29.964Z,100267.53
2023-04-16T08:11:33.449Z,100267.91
2023-04-16T08:14:36.909Z,100264.19
2023-04-16T08:17:40.230Z,100262.19
2023-04-16T08:20:43.354Z,100265.75
2023-04-16T08:23:46.549Z,100273.41
2023-04-16T08:26:50.017Z,100270.28
2023-04-16T08:29:53.427Z,100275.75
2023-04-16T08:32:56.850Z,100271.84
2023-04-16T08:35:59.976Z,100281.28
2023-04-16T08:39:03.121Z,100280.59
2023-04-16T08:42:13.149Z,100285.94
2023-04-16T08:45:19.586Z,100290.38
2023-04-16T08:48:26.576Z,100288.94
2023-04-16T08:51:36.064Z,100302.94
2023-04-16T08:54:46.750Z,100319.53
2023-04-16T08:58:00.554Z,100322.69
2023-04-16T09:01:04.595Z,100326.56
2023-04-16T09:04:09.389Z,100340.88
2023-04-16T09:07:12.680Z,100348.09
2023-04-16T09:10:16.661Z,100352.44
2023-04-16T09:13:20.775Z,100349.47
2023-04-16T09:16:25.230Z,100352.19
2023-04-16T09:19:29.271Z,100348.69
2023-04-16T09:22:35.559Z,100362.59
2023-04-16T09:25:40.279Z,100367.34
2023-04-16T09:28:46.989Z,100380.22
2023-04-16T09:32:27.623Z,100383.81
2023-04-16T09:35:45.792Z,100387.03
2023-04-16T09:38:51.658Z,100376.34
2023-04-16T09:41:55.478Z,100370.72
2023-04-16T09:45:01.388Z,100366.84
2023-04-16T09:48:07.636Z,100358.91
2023-04-16T09:51:11.005Z,100356.25
2023-04-16T09:54:15.701Z,100363.50
2023-04-16T09:57:25.746Z,100357.16
2023-04-16T10:00:30.991Z,100346.13
2023-04-16T10:03:36.469Z,100345.03
2023-04-16T10:06:39.691Z,100343.97
2023-04-16T10:09:43.176Z,100349.91
2023-04-16T10:12:46.904Z,100344.00
2023-04-16T10:15:50.502Z,100335.16
2023-04-16T10:18:57.144Z,100339.59
2023-04-16T10:22:00.322Z,100339.59
2023-04-16T10:25:04.214Z,100342.06
2023-04-16T10:28:07.653Z,100340.44
2023-04-16T10:31:20.553Z,100330.81
2023-04-16T10:34:25.149Z,100329.97
2023-04-16T10:37:32.380Z,100317.06
2023-04-16T10:40:35.666Z,100315.38
2023-04-16T10:44:00.104Z,100320.41
2023-04-16T10:47:03.583Z,100311.34
2023-04-16T10:50:16.641Z,100318.47
2023-04-16T10:53:23.090Z,100306.69
2023-04-16T10:56:31.490Z,100313.41
2023-04-16T10:59:36.254Z,100296.31
2023-04-16T11:02:41.561Z,100292.03
2023-04-16T11:05:49.039Z,100286.78
2023-04-16T11:08:55.298Z,100289.09
2023-04-16T11:12:15.092Z,100274.56
2023-04-16T11:15:21.870Z,100287.00
2023-04-16T11:18:26.168Z,100282.53
2023-04-16T11:21:29.787Z,100281.13
2023-04-16T11:24:33.457Z,100280.16
2023-04-16T11:27:36.707Z,100277.22
2023-04-16T11:30:41.659Z,100284.53
2023-04-16T11:33:44.981Z,100274.84
2023-04-16T11:36:50.610Z,100270.13
2023-04-16T11:39:54.000Z,100272.78
2023-04-16T11:43:20.088Z,100263.34
2023-04-16T11:46:27.663Z,100270.66
2023-04-16T11:49:31.172Z,100260.44
2023-04-16T11:52:36.516Z,100252.34
2023-04-16T11:55:45.925Z,100251.16
2023-04-16T11:59:16.011Z,100247.47
2023-04-16T12:02:38.222Z,100247.25
2023-04-16T12:05:41.551Z,100235.22
2023-04-16T12:08:44.712Z,100237.72
2023-04-16T12:11:48.028Z,100243.69
2023-04-16T12:14:51.523Z,100236.44
2023-04-16T12:18:08.189Z,100234.75
2023-04-16T12:21:12.515Z,100245.03
2023-04-16T12:24:24.234Z,100237.78
2023-04-16T12:27:43.655Z,100241.63
2023-04-16T12:30:51.574Z,100240.16
2023-04-16T12:34:03.655Z,100237.47
2023-04-16T12:37:09.696Z,100231.41
2023-04-16T12:40:13.225Z,100239.09
2023-04-16T12:43:16.583Z,100236.38
2023-04-16T12:46:19.986Z,100232.75
2023-04-16T12:49:23.423Z,100233.25
2023-04-16T12:52:27.370Z,100225.63
2023-04-16T12:55:31.045Z,100227.81
2023-04-16T12:58:34.573Z,100227.25
2023-04-16T13:01:37.861Z,100229.22
2023-04-16T13:04:41.274Z,100220.38
2023-04-16T13:07:44.515Z,100215.66
2023-04-16T13:10:48.008Z,100220.00
2023-04-16T13:13:51.351Z,100212.25
2023-04-16T13:16:54.302Z,100213.19
2023-04-16T13:19:57.332Z,100208.19
2023-04-16T13:23:00.499Z,100219.09
2023-04-16T13:26:04.174Z,100208.78
2023-04-16T13:29:07.431Z,100221.56
2023-04-16T13:32:12.233Z,100217.50
2023-04-16T13:35:15.769Z,100214.56
2023-04-16T13:38:18.848Z,100207.00
2023-04-16T13:41:22.454Z,100215.44
2023-04-16T13:44:28.946Z,100205.88
2023-04-16T13:47:32.098Z,100211.63
2023-04-16T13:50:35.851Z,100216.00
2023-04-16T13:53:38.910Z,100210.91
2023-04-16T13:56:42.416Z,100208.06
2023-04-16T13:59:46.398Z,100211.44
2023-04-16T14:02:50.279Z,100206.72
2023-04-16T14:05:53.641Z,100212.78
2023-04-16T14:08:56.718Z,100207.88
2023-04-16T14:12:00.565Z,100206.28
2023-04-16T14:15:06.737Z,100201.31
2023-04-16T14:18:10.036Z,100203.75
2023-04-16T14:21:13.713Z,100204.78
2023-04-16T14:24:16.834Z,100218.13
2023-04-16T14:27:20.042Z,100215.59
2023-04-16T14:30:23.728Z,100221.22
2023-04-16T14:33:27.496Z,100215.31
2023-04-16T14:36:31.414Z,100214.56
2023-04-16T14:39:34.508Z,100220.22
2023-04-16T14:42:38.877Z,100217.84
2023-04-16T14:45:42.143Z,100209.53
2023-04-16T14:48:45.865Z,100215.75
2023-04-16T14:51:49.152Z,100210.75
2023-04-16T14:54:52.758Z,100214.75
2023-04-16T14:57:56.621Z,100214.75
2023-04-16T15:01:00.224Z,100217.78
2023-04-16T15:04:03.609Z,100215.72
2023-04-16T15:07:07.138Z,100216.16
2023-04-16T15:10:11.040Z,100220.63
2023-04-16T15:13:14.435Z,100218.09
2023-04-16T15:16:18.070Z,100219.72
2023-04-16T15:19:21.689Z,100209.75
2023-04-16T15:22:24.566Z,100212.34
2023-04-16T15:25:28.036Z,100215.50
2023-04-16T15:28:31.476Z,100219.34
2023-04-16T15:31:34.843Z,100222.44
2023-04-16T15:34:37.929Z,100222.44
2023-04-16T15:37:41.819Z,100218.34
2023-04-16T15:40:45.309Z,100223.38
2023-04-16T15:43:48.518Z,100221.50
2023-04-16T15:46:51.699Z,100221.44
2023-04-16T15:49:55.476Z,100224.50
2023-04-16T15:52:58.705Z,100220.91
2023-04-16T15:56:03.449Z,100224.38
2023-04-16T15:59:09.607Z,100221.44
2023-04-16T16:02:13.041Z,100219.72
2023-04-16T16:05:17.120Z,100228.75
2023-04-16T16:08:20.355Z,100219.81
2023-04-16T16:11:24.127Z,100231.34
2023-04-16T16:14:27.404Z,100226.47
2023-04-16T16:17:31.158Z,100230.47
2023-04-16T16:20:35.104Z,100231.63
2023-04-16T16:23:39.313Z,100230.94
2023-04-16T16:26:42.615Z,100225.25
2023-04-16T16:29:46.318Z,100238.88
2023-04-16T16:32:49.596Z,100231.56
2023-04-16T16:35:54.131Z,100238.22
2023-04-16T16:38:57.599Z,100228.91
2023-04-16T16:42:00.973Z,100234.28
2023-04-16T16:45:06.179Z,100236.41
2023-04-16T16:48:09.643Z,100238.97
2023-04-16T16:51:13.046Z,100239.22
2023-04-16T16:57:33.384Z,100245.28
2023-04-16T17:00:37.374Z,100242.88
2023-04-16T17:03:41.345Z,100249.97
2023-04-16T17:06:44.797Z,100239.56
2023-04-16T17:09:48.146Z,100245.56
2023-04-16T17:12:52.108Z,100237.44
2023-04-16T17:15:55.630Z,100253.88
2023-04-16T17:18:59.550Z,100242.03
2023-04-16T17:22:03.208Z,100245.44
2023-04-16T17:25:10.433Z,100246.38
2023-04-16T17:28:14.055Z,100243.06
2023-04-16T17:31:20.669Z,100237.25
2023-04-16T17:34:24.112Z,100244.25
2023-04-16T17:37:27.804Z,100246.97
2023-04-16T17:40:31.064Z,100247.06
2023-04-16T17:43:34.085Z,100249.59
2023-04-16T17:46:37.373Z,100249.16
2023-04-16T17:49:40.902Z,100250.75
2023-04-16T17:52:45.009Z,100256.91
2023-04-16T17:55:56.747Z,100253.00
2023-04-16T17:59:00.838Z,100251.41
2023-04-16T18:02:04.231Z,100259.16
2023-04-16T18:05:08.311Z,100266.59
2023-04-16T18:08:11.370Z,100266.06
2023-04-16T18:11:14.346Z,100266.84
2023-04-16T18:14:20.082Z,100271.69
2023-04-16T18:17:23.484Z,100264.13
2023-04-16T18:20:27.408Z,100274.34
2023-04-16T18:23:30.558Z,100266.41
2023-04-16T18:26:36.198Z,100290.31
2023-04-16T18:29:40.561Z,100283.19
2023-04-16T18:33:04.260Z,100287.75
2023-04-16T18:36:08.698Z,100280.84
2023-04-16T18:39:11.912Z,100281.31
2023-04-16T18:42:15.351Z,100284.88
2023-04-16T18:45:21.896Z,100298.91
2023-04-16T18:48:26.841Z,100295.88
2023-04-16T18:51:30.589Z,100296.19
2023-04-16T18:54:34.784Z,100290.25
2023-04-16T18:57:38.124Z,100298.84
2023-04-16T19:00:41.261Z,100283.25
2023-04-16T19:03:46.553Z,100291.34
2023-04-16T19:06:49.797Z,100287.13
2023-04-16T19:09:53.445Z,100297.19
2023-04-16T19:12:57.441Z,100288.09
2023-04-16T19:16:01.783Z,100295.41
2023-04-16T19:19:05.375Z,100296.34
2023-04-16T19:22:08.428Z,100290.91
2023-04-16T19:25:11.527Z,100283.41
2023-04-16T19:28:14.723Z,100282.22
2023-04-16T19:31:18.960Z,100279.16
2023-04-16T19:34:22.369Z,100277.91
2023-04-16T19:37:26.005Z,100283.41
2023-04-16T19:40:29.126Z,100290.06
2023-04-16T19:43:32.550Z,100283.06
2023-04-16T19:46:35.871Z,100280.22
2023-04-16T19:49:39.628Z,100287.41
2023-04-16T19:52:43.496Z,100297.81
2023-04-16T19:55:46.818Z,100286.63
2023-04-16T19:58:50.082Z,100291.59
2023-04-16T20:01:53.814Z,100284.19
2023-04-16T20:04:57.111Z,100289.72
2023-04-16T20:08:00.459Z,100290.16
2023-04-16T20:11:03.520Z,100291.66
2023-04-16T20:14:07.054Z,100293.81
2023-04-16T20:17:10.509Z,100301.22
2023-04-16T20:20:15.798Z,100301.28
2023-04-16T20:23:26.014Z,100275.56
2023-04-16T20:26:37.901Z,100297.88
2023-04-16T20:29:41.661Z,100292.47
2023-04-16T20:32:45.470Z,100299.13
2023-04-16T20:35:51.168Z,100297.25
2023-04-16T20:38:54.875Z,100304.19
2023-04-16T20:41:58.595Z,100303.94
2023-04-16T20:45:04.130Z,100295.25
2023-04-16T20:48:08.068Z,100294.16
2023-04-16T20:51:11.479Z,100294.63
2023-04-16T20:54:14.612Z,100286.41
2023-04-16T20:57:18.008Z,100290.88
2023-04-16T21:00:21.674Z,100276.56
2023-04-16T21:03:25.374Z,100271.56
2023-04-16T21:06:32.971Z,100266.16
2023-04-16T21:09:36.462Z,100259.91
2023-04-16T21:12:39.963Z,100256.06
2023-04-16T21:15:44.519Z,100259.13
2023-04-16T21:18:47.568Z,100252.63
2023-04-16T21:21:51.528Z,100262.19
2023-04-16T21:24:54.645Z,100244.41
2023-04-16T21:27:58.080Z,100247.06
2023-04-16T21:31:01.361Z,100232.91
2023-04-16T21:34:04.734Z,100216.72
2023-04-16T21:37:08.376Z,100218.19
2023-04-16T21:40:11.739Z,100217.50
2023-04-16T21:43:15.750Z,100230.44
2023-04-16T21:46:19.059Z,100229.19
2023-04-16T21:49:22.405Z,100219.94
2023-04-16T21:52:25.639Z,100213.28
2023-04-16T21:55:29.003Z,100217.84
2023-04-16T21:58:32.428Z,100211.19
2023-04-16T22:01:35.612Z,100212.59
2023-04-16T22:04:39.152Z,100206.47
2023-04-16T22:07:42.892Z,100211.16
2023-04-16T22:10:45.941Z,100215.75
2023-04-16T22:13:49.624Z,100205.63
2023-04-16T22:16:53.714Z,100213.72
2023-04-16T22:20:00.477Z,100222.44
2023-04-16T22:23:03.307Z,100217.84
2023-04-16T22:26:06.336Z,100210.31
2023-04-16T22:29:10.351Z,100204.38
2023-04-16T22:32:13.901Z,100201.78
2023-04-16T22:35:16.851Z,100195.19
2023-04-16T22:38:19.891Z,100193.50
2023-04-16T22:41:23.467Z,100200.63
2023-04-16T22:44:27.164Z,100195.94
2023-04-16T22:47:30.169Z,100197.28
2023-04-16T22:50:33.629Z,100187.09
2023-04-16T22:53:37.245Z,100186.59
2023-04-16T22:56:40.875Z,100178.50
2023-04-16T22:59:44.591Z,100173.47
2023-04-16T23:02:48.439Z,100166.16
2023-04-16T23:05:51.973Z,100166.66
2023-04-16T23:08:55.646Z,100163.94
2023-04-16T23:11:58.982Z,100166.66
2023-04-16T23:15:02.207Z,100158.91
2023-04-16T23:18:06.090Z,100168.69
2023-04-16T23:21:09.431Z,100161.41
2023-04-16T23:24:12.756Z,100173.75
2023-04-16T23:27:16.341Z,100147.88
2023-04-16T23:30:19.514Z,100154.09
2023-04-16T23:33:23.029Z,100141.34
2023-04-16T23:36:27.027Z,100146.94
2023-04-16T23:39:30.497Z,100151.13
2023-04-16T23:42:33.632Z,100146.16
2023-04-16T23:45:37.065Z,100146.22
2023-04-16T23:48:40.421Z,100134.66
2023-04-16T23:51:43.786Z,100143.59
2023-04-16T23:54:46.877Z,100144.00
2023-04-16T23:57:50.151Z,100140.09
